Time;durP1;ratioP1;P1;durP2;ratioP2;P2;SDS_P1;SDS_P2;PMS_P1;PMS_P2;Temp;Humidity;BMP_temperature;BMP_pressure;BME280_temperature;BME280_humidity;BME280_pressure;Samples;Min_cycle;Max_cycle;Signal;HPM_P1;HPM_P2
2023/05/29 00:01:00;;;;;;;9.63;5.10;;;;;;;-144.30;100.00;85531.63;5153698;27;20197;-56
2023/05/29 00:03:28;;;;;;;9.20;5.63;;;;;;;-144.30;100.00;85579.31;5154088;27;20193;-57
2023/05/29 00:05:55;;;;;;;6.05;5.20;;;;;;;-144.30;100.00;85553.47;5153319;27;20593;-57
2023/05/29 00:08:23;;;;;;;6.13;5.57;;;;;;;-144.30;100.00;85565.41;5152197;27;20546;-57
2023/05/29 00:10:50;;;;;;;8.95;4.80;;;;;;;-144.30;100.00;85587.28;5153474;27;20582;-56
2023/05/29 00:13:17;;;;;;;6.00;5.40;;;;;;;-144.30;100.00;85569.38;5152348;27;20189;-56
2023/05/29 00:15:44;;;;;;;6.93;5.07;;;;;;;-144.30;100.00;85575.34;5153286;27;20217;-58
2023/05/29 00:18:11;;;;;;;10.17;5.20;;;;;;;-144.30;100.00;85565.41;5153471;27;20193;-58
2023/05/29 00:20:38;;;;;;;6.63;5.28;;;;;;;-144.30;100.00;85525.66;5153648;27;20197;-58
2023/05/29 00:23:05;;;;;;;7.60;5.60;;;;;;;-144.30;100.00;85565.41;5153511;27;20582;-58
2023/05/29 00:25:34;;;;;;;13.30;5.30;;;;;;;-144.30;100.00;85549.50;5153285;27;20189;-58
2023/05/29 00:28:01;;;;;;;9.37;4.90;;;;;;;-144.30;100.00;85561.44;5153350;27;20193;-58
2023/05/29 00:30:28;;;;;;;10.00;4.93;;;;;;;-144.30;100.00;85539.56;5153378;27;20580;-58
2023/05/29 00:32:55;;;;;;;6.20;5.70;;;;;;;-144.30;100.00;85591.25;5152943;27;20200;-58
2023/05/29 00:35:21;;;;;;;8.40;5.20;;;;;;;-144.30;100.00;85557.47;5153429;27;20217;-58
2023/05/29 00:37:48;;;;;;;8.03;5.13;;;;;;;-144.30;100.00;85563.41;5153192;27;20189;-57
2023/05/29 00:40:15;;;;;;;5.60;5.10;;;;;;;-144.30;100.00;85533.59;5153184;27;20606;-57
2023/05/29 00:42:44;;;;;;;5.53;5.03;;;;;;;-144.30;100.00;85519.69;5145790;27;20220;-58
2023/05/29 00:45:13;;;;;;;7.35;5.28;;;;;;;-144.30;100.00;85541.56;5124812;27;20198;-58
2023/05/29 00:47:40;;;;;;;8.65;6.15;;;;;;;-144.30;100.00;85543.53;5129513;27;20233;-58
2023/05/29 00:50:10;;;;;;;6.73;5.63;;;;;;;-144.30;100.00;85535.59;5131215;27;20186;-58
2023/05/29 00:52:38;;;;;;;6.45;5.72;;;;;;;-144.30;100.00;85539.56;5131775;27;20589;-58
2023/05/29 00:55:06;;;;;;;10.32;6.47;;;;;;;-144.30;100.00;85543.53;5131943;27;20209;-58
2023/05/29 00:57:35;;;;;;;6.68;6.05;;;;;;;-144.30;100.00;85559.44;5131953;27;20693;-58
2023/05/29 01:00:05;;;;;;;6.85;5.35;;;;;;;-144.30;100.00;85527.63;5131842;27;20571;-58
2023/05/29 01:02:32;;;;;;;6.80;5.65;;;;;;;-144.30;100.00;85545.53;5131813;27;20198;-56
2023/05/29 01:04:59;;;;;;;9.00;6.20;;;;;;;-144.30;100.00;85555.47;5132038;27;20198;-56
2023/05/29 01:07:26;;;;;;;11.57;6.18;;;;;;;-144.30;100.00;85577.34;5132084;27;20225;-57
2023/05/29 01:09:53;;;;;;;7.45;5.88;;;;;;;-144.30;100.00;85555.47;5132218;27;20205;-57
2023/05/29 01:12:29;;;;;;;9.88;6.30;;;;;;;-144.30;100.00;85551.50;5131628;27;20275;-56
2023/05/29 01:15:11;;;;;;;10.20;6.30;;;;;;;-144.30;100.00;85575.34;5131827;27;20204;-57
2023/05/29 01:17:48;;;;;;;6.70;6.13;;;;;;;-144.30;100.00;85573.38;5131524;27;20246;-56
2023/05/29 01:20:30;;;;;;;7.45;6.07;;;;;;;-144.30;100.00;85575.34;5132136;27;20570;-55
2023/05/29 01:23:31;;;;;;;8.80;5.78;;;;;;;-144.30;100.00;85579.31;5131288;27;20585;-57
2023/05/29 01:26:12;;;;;;;12.23;5.70;;;;;;;-144.30;100.00;85561.44;5127521;27;20190;-57
2023/05/29 01:28:45;;;;;;;8.40;6.05;;;;;;;-144.30;100.00;85579.31;5131491;27;20692;-56
2023/05/29 01:31:13;;;;;;;10.93;5.80;;;;;;;-144.30;100.00;85575.34;5131358;27;20190;-56
2023/05/29 01:33:41;;;;;;;7.00;5.50;;;;;;;-144.30;100.00;85491.84;5131300;27;20194;-56
2023/05/29 01:36:10;;;;;;;5.72;5.22;;;;;;;-144.30;100.00;85551.50;5131301;27;20751;-57
2023/05/29 01:38:37;;;;;;;12.30;5.97;;;;;;;-144.30;100.00;85527.63;5131159;27;20198;-57
2023/05/29 01:41:05;;;;;;;7.33;5.57;;;;;;;-144.30;100.00;85575.34;5131277;27;20194;-56
2023/05/29 01:43:32;;;;;;;9.25;5.80;;;;;;;-144.30;100.00;85555.47;5130982;27;20205;-56
2023/05/29 01:46:01;;;;;;;7.07;5.05;;;;;;;-144.30;100.00;85547.53;5130966;27;20622;-57
2023/05/29 01:48:28;;;;;;;5.97;5.47;;;;;;;-144.30;100.00;85682.72;5131111;27;20212;-56
2023/05/29 01:50:56;;;;;;;6.03;5.40;;;;;;;-144.30;100.00;85521.69;5131453;27;20655;-57
2023/05/29 01:53:23;;;;;;;6.40;4.82;;;;;;;-144.30;100.00;85541.56;5131186;27;20190;-58
2023/05/29 01:55:51;;;;;;;7.65;5.03;;;;;;;-144.30;100.00;85557.47;5131006;27;20230;-57
2023/05/29 01:58:21;;;;;;;5.43;4.93;;;;;;;-144.30;100.00;85774.16;5131024;27;20202;-57
2023/05/29 02:00:48;;;;;;;8.07;5.18;;;;;;;-144.30;100.00;85444.16;5130862;27;20190;-56
2023/05/29 02:03:17;;;;;;;6.82;5.00;;;;;;;-144.30;100.00;85519.69;5131106;27;20200;-57
2023/05/29 02:05:43;;;;;;;6.18;5.43;;;;;;;-144.30;100.00;85559.44;5130891;27;20200;-57
2023/05/29 02:08:11;;;;;;;6.00;5.38;;;;;;;-144.30;100.00;85531.63;5131167;27;20194;-57
2023/05/29 02:10:38;;;;;;;5.78;5.28;;;;;;;-144.30;100.00;85513.72;5131429;27;20198;-57
2023/05/29 02:13:05;;;;;;;8.18;5.07;;;;;;;-144.30;100.00;85577.34;5130768;27;20198;-57
2023/05/29 02:15:32;;;;;;;5.95;5.00;;;;;;;-144.30;100.00;85509.75;5130943;27;20189;-58
2023/05/29 02:18:00;;;;;;;5.20;4.63;;;;;;;-144.30;100.00;85575.34;5130915;27;20289;-58
2023/05/29 02:20:29;;;;;;;6.00;5.05;;;;;;;-144.30;100.00;85571.38;5131285;27;20584;-57
2023/05/29 02:22:56;;;;;;;5.68;5.18;;;;;;;-144.30;100.00;85565.41;5130871;27;20194;-56
2023/05/29 02:25:22;;;;;;;7.23;5.50;;;;;;;-144.30;100.00;85559.44;5129920;27;20206;-57
2023/05/29 02:27:49;;;;;;;9.90;4.90;;;;;;;-144.30;100.00;85563.41;5130700;28;20194;-57
2023/05/29 02:30:16;;;;;;;6.15;5.43;;;;;;;-144.30;100.00;85551.50;5130870;28;20198;-56
2023/05/29 02:32:43;;;;;;;5.47;4.97;;;;;;;-144.30;100.00;85589.28;5130758;28;20198;-58
2023/05/29 02:35:10;;;;;;;5.47;5.00;;;;;;;-144.30;100.00;85587.28;5130649;27;20686;-57
2023/05/29 02:37:38;;;;;;;5.87;4.93;;;;;;;-144.30;100.00;85579.31;5130638;27;20217;-56
2023/05/29 02:40:08;;;;;;;5.67;5.17;;;;;;;-144.30;100.00;85573.38;5130506;28;20194;-57
2023/05/29 02:42:35;;;;;;;5.63;5.18;;;;;;;-144.30;100.00;85595.22;5130912;27;20629;-57
2023/05/29 02:45:02;;;;;;;8.55;5.50;;;;;;;-144.30;100.00;85583.31;5130986;28;20224;-57
2023/05/29 02:47:29;;;;;;;11.48;6.38;;;;;;;-144.30;100.00;85595.22;5130590;27;20230;-57
2023/05/29 02:49:56;;;;;;;8.68;5.30;;;;;;;-144.30;100.00;85553.47;5130393;28;20194;-57
2023/05/29 02:52:23;;;;;;;8.18;4.97;;;;;;;-144.30;100.00;85555.47;5130560;28;20194;-58
2023/05/29 02:54:51;;;;;;;7.90;4.82;;;;;;;-144.30;100.00;85557.47;5130426;27;20227;-58
2023/05/29 02:57:18;;;;;;;9.40;4.78;;;;;;;-144.30;100.00;85531.63;5130441;27;20218;-58
2023/05/29 02:59:45;;;;;;;6.85;4.97;;;;;;;-144.30;100.00;85563.41;5130510;27;20200;-57
2023/05/29 03:02:12;;;;;;;9.35;5.35;;;;;;;-144.30;100.00;85573.38;5130813;27;20202;-56
2023/05/29 03:04:39;;;;;;;7.82;4.85;;;;;;;-144.30;100.00;85567.41;5130479;28;20216;-56
2023/05/29 03:07:09;;;;;;;8.48;4.65;;;;;;;-144.30;100.00;85487.88;5130140;28;20229;-56
2023/05/29 03:09:36;;;;;;;5.57;4.72;;;;;;;-144.30;100.00;85535.59;5130280;28;20190;-56
2023/05/29 03:12:05;;;;;;;6.93;4.57;;;;;;;-144.30;100.00;85535.59;5130776;27;20198;-57
2023/05/29 03:14:35;;;;;;;10.20;4.85;;;;;;;-144.30;100.00;85547.53;5133157;27;20586;-57
2023/05/29 03:17:02;;;;;;;7.47;4.70;;;;;;;-144.30;100.00;85555.47;5134156;27;20232;-57
2023/05/29 03:19:29;;;;;;;13.18;5.80;;;;;;;-144.30;100.00;85569.38;5134037;27;20247;-57
2023/05/29 03:21:56;;;;;;;7.85;4.93;;;;;;;-144.30;100.00;85559.44;5133907;27;20709;-57
2023/05/29 03:24:24;;;;;;;8.35;4.97;;;;;;;-144.30;100.00;85547.53;5134150;27;20667;-57
2023/05/29 03:26:51;;;;;;;6.20;4.68;;;;;;;-144.30;100.00;85551.50;5133428;27;20251;-56
2023/05/29 03:29:19;;;;;;;6.65;4.80;;;;;;;-144.30;100.00;85551.50;5132645;27;20194;-56
2023/05/29 03:31:46;;;;;;;6.78;5.10;;;;;;;-144.30;100.00;85567.41;5132850;27;20215;-58
2023/05/29 03:34:13;;;;;;;8.55;5.53;;;;;;;-144.30;100.00;85545.53;5132562;27;20224;-57
2023/05/29 03:36:41;;;;;;;6.68;5.82;;;;;;;-144.30;100.00;85587.28;5132791;27;20675;-57
2023/05/29 03:39:07;;;;;;;10.48;5.43;;;;;;;-144.30;100.00;85587.28;5132074;27;20192;-57
2023/05/29 03:41:34;;;;;;;5.78;4.97;;;;;;;-144.30;100.00;85589.28;5132964;27;20190;-57
2023/05/29 03:44:01;;;;;;;8.90;6.22;;;;;;;-144.30;100.00;85575.34;5132952;27;20225;-56
2023/05/29 03:46:30;;;;;;;5.90;5.45;;;;;;;-144.30;100.00;85587.28;5129946;27;20232;-55
2023/05/29 03:48:56;;;;;;;5.93;5.22;;;;;;;-144.30;100.00;85573.38;5132570;27;20192;-56
2023/05/29 03:51:23;;;;;;;9.48;5.35;;;;;;;-144.30;100.00;85543.53;5132854;27;20281;-57
2023/05/29 03:53:50;;;;;;;10.25;6.00;;;;;;;-144.30;100.00;85555.47;5133506;27;20198;-57
2023/05/29 03:56:17;;;;;;;7.18;5.10;;;;;;;-144.30;100.00;85545.53;5133445;27;20226;-57
2023/05/29 03:58:44;;;;;;;8.07;5.28;;;;;;;-144.30;100.00;85549.50;5133271;27;20598;-57
2023/05/29 04:01:11;;;;;;;8.00;5.55;;;;;;;-144.30;100.00;85557.47;5132652;27;20585;-58
2023/05/29 04:03:39;;;;;;;11.82;5.72;;;;;;;-144.30;100.00;85543.53;5133166;27;20683;-59
2023/05/29 04:06:06;;;;;;;6.50;5.32;;;;;;;-144.30;100.00;85537.59;5133393;27;20194;-56
2023/05/29 04:08:33;;;;;;;6.10;4.75;;;;;;;-144.30;100.00;85460.03;5133117;27;20272;-57
2023/05/29 04:11:01;;;;;;;8.60;5.10;;;;;;;-144.30;100.00;85549.50;5133333;27;20219;-58
2023/05/29 04:13:28;;;;;;;5.82;5.25;;;;;;;-144.30;100.00;85503.78;5133237;27;20197;-58
2023/05/29 04:15:55;;;;;;;8.00;5.53;;;;;;;-144.30;100.00;85539.56;5132914;27;20224;-58
2023/05/29 04:18:22;;;;;;;11.20;5.00;;;;;;;-144.30;100.00;85567.41;5132844;27;20251;-57
2023/05/29 04:20:50;;;;;;;5.28;4.70;;;;;;;-144.30;100.00;85551.50;5132703;27;20197;-55
2023/05/29 04:23:17;;;;;;;8.05;5.90;;;;;;;-144.30;100.00;85507.75;5132810;27;20196;-56
2023/05/29 04:25:44;;;;;;;7.45;5.75;;;;;;;-144.30;100.00;85515.72;5132226;27;20216;-56
2023/05/29 04:28:11;;;;;;;6.68;6.07;;;;;;;-144.30;100.00;85511.75;5131893;27;20194;-57
2023/05/29 04:30:39;;;;;;;8.40;5.80;;;;;;;-144.30;100.00;85519.69;5132182;27;20564;-57
2023/05/29 04:33:06;;;;;;;11.80;7.05;;;;;;;-144.30;100.00;85495.84;5132253;27;20196;-57
2023/05/29 04:35:32;;;;;;;14.10;7.07;;;;;;;-144.30;100.00;85483.91;5132434;27;20197;-56
2023/05/29 04:38:01;;;;;;;10.38;6.95;;;;;;;-144.30;100.00;85454.09;5132448;27;20643;-57
2023/05/29 04:40:28;;;;;;;12.93;6.20;;;;;;;-144.30;100.00;85499.81;5131707;27;20204;-56
2023/05/29 04:42:55;;;;;;;5.72;5.25;;;;;;;-144.30;100.00;85493.84;5132172;27;20194;-56
2023/05/29 04:45:22;;;;;;;5.43;4.88;;;;;;;-144.30;100.00;85470.00;5132232;27;20198;-57
2023/05/29 04:47:49;;;;;;;7.43;6.35;;;;;;;-144.30;100.00;85464.03;5132122;27;20730;-56
2023/05/29 04:50:17;;;;;;;10.50;6.30;;;;;;;-144.30;100.00;85444.16;5132311;27;20589;-56
2023/05/29 04:52:45;;;;;;;9.05;6.55;;;;;;;-144.30;100.00;85464.03;5132271;27;20602;-57
2023/05/29 04:55:13;;;;;;;11.45;5.88;;;;;;;-144.30;100.00;85430.22;5132443;27;20197;-57
2023/05/29 04:57:41;;;;;;;8.23;5.88;;;;;;;-144.30;100.00;85487.88;5132025;27;20221;-57
2023/05/29 05:00:13;;;;;;;5.93;5.28;;;;;;;-144.30;100.00;85462.03;5132279;27;20679;-57
2023/05/29 05:02:42;;;;;;;7.53;5.53;;;;;;;-144.30;100.00;85462.03;5131831;27;20194;-56
2023/05/29 05:05:09;;;;;;;7.50;5.97;;;;;;;-144.30;100.00;85440.16;5130864;27;20609;-57
2023/05/29 05:07:36;;;;;;;10.35;6.03;;;;;;;-144.30;100.00;85460.03;5131282;27;20197;-57
2023/05/29 05:10:03;;;;;;;11.00;5.70;;;;;;;-144.30;100.00;85471.97;5131549;27;20193;-57
2023/05/29 05:12:32;;;;;;;8.38;6.47;;;;;;;-144.30;100.00;85430.22;5131791;27;20194;-56
2023/05/29 05:14:58;;;;;;;9.52;5.70;;;;;;;-144.30;100.00;85452.09;5131578;27;20194;-56
2023/05/29 05:17:25;;;;;;;6.57;5.82;;;;;;;-144.30;100.00;85428.25;5131543;27;20224;-56
2023/05/29 05:19:54;;;;;;;6.70;6.03;;;;;;;-144.30;100.00;85468.00;5131439;27;20201;-56
2023/05/29 05:22:21;;;;;;;11.80;6.43;;;;;;;-144.30;100.00;85450.09;5131572;27;20205;-56
2023/05/29 05:24:48;;;;;;;5.72;5.22;;;;;;;-144.30;100.00;85458.06;5131361;27;20194;-57
2023/05/29 05:27:15;;;;;;;10.75;6.20;;;;;;;-144.30;99.74;85426.25;5131504;27;20233;-56
2023/05/29 05:29:43;;;;;;;8.88;5.97;;;;;;;-144.30;98.78;85422.28;5131739;27;20582;-57
2023/05/29 05:32:10;;;;;;;6.05;5.60;;;;;;;-144.30;98.47;85442.16;5131985;27;20194;-57
2023/05/29 05:34:37;;;;;;;8.25;6.38;;;;;;;-144.30;98.55;85402.41;5130455;27;20197;-56
2023/05/29 05:37:04;;;;;;;6.50;5.93;;;;;;;-144.30;98.63;85426.25;5130848;27;20221;-56
2023/05/29 05:39:31;;;;;;;9.95;5.97;;;;;;;-144.30;98.25;85428.25;5131196;27;20201;-56
2023/05/29 05:41:58;;;;;;;7.00;5.15;;;;;;;-144.30;97.94;85414.31;5131052;27;20200;-56
2023/05/29 05:44:24;;;;;;;10.25;6.38;;;;;;;-144.30;97.46;85398.41;5131200;27;20193;-56
2023/05/29 05:46:54;;;;;;;7.32;6.20;;;;;;;-144.30;96.50;85364.63;5130943;27;20225;-56
2023/05/29 05:49:21;;;;;;;8.20;6.05;;;;;;;-144.30;96.17;85358.66;5131174;27;20206;-56
2023/05/29 05:51:48;;;;;;;9.02;5.82;;;;;;;-144.30;94.96;85368.59;5130987;27;20194;-57
2023/05/29 05:54:15;;;;;;;7.32;6.00;;;;;;;-144.30;94.48;85354.69;5130337;27;20194;-56
2023/05/29 05:56:42;;;;;;;8.43;5.90;;;;;;;-144.30;94.19;85336.78;5130534;27;20194;-57
2023/05/29 05:59:08;;;;;;;9.23;6.22;;;;;;;-144.30;94.36;85346.72;5131158;27;20193;-57
2023/05/29 06:01:36;;;;;;;8.50;5.80;;;;;;;-144.30;94.15;85314.94;5130045;28;20202;-57
2023/05/29 06:04:04;;;;;;;12.25;6.50;;;;;;;-144.30;94.21;85324.88;5130442;28;20625;-57
2023/05/29 06:06:32;;;;;;;11.02;6.18;;;;;;;-144.30;94.03;85308.97;5130895;27;20193;-56
2023/05/29 06:08:59;;;;;;;8.57;6.40;;;;;;;-144.30;94.23;85255.28;5116585;27;20218;-56
2023/05/29 06:11:26;;;;;;;6.70;5.68;;;;;;;-144.30;93.70;85193.66;5109399;27;20257;-57
2023/05/29 06:13:53;;;;;;;8.30;5.75;;;;;;;-144.30;91.50;85855.69;5129968;27;20201;-57
2023/05/29 06:16:20;;;;;;;6.68;5.95;;;;;;;-144.30;90.12;85175.78;5130148;27;20190;-57
2023/05/29 06:18:47;;;;;;;9.38;5.70;;;;;;;-144.30;89.76;85126.09;5128384;28;20216;-57
2023/05/29 06:21:16;;;;;;;9.43;5.47;;;;;;;-144.30;89.16;85124.09;5129512;28;20190;-57
2023/05/29 06:23:43;;;;;;;7.57;5.90;;;;;;;-144.30;88.62;85122.09;5127202;28;20628;-57
2023/05/29 06:26:11;;;;;;;6.97;6.20;;;;;;;-144.30;88.27;85145.97;5129441;28;20185;-58
2023/05/29 06:28:38;;;;;;;26.38;18.00;;;;;;;-144.30;87.97;85138.00;5129138;27;20205;-57
2023/05/29 06:31:05;;;;;;;10.38;8.85;;;;;;;-144.30;87.90;85128.06;5129325;27;20194;-57
2023/05/29 06:33:32;;;;;;;9.15;6.13;;;;;;;-144.30;88.06;85106.22;5129187;27;20233;-58
2023/05/29 06:35:59;;;;;;;10.13;9.00;;;;;;;-144.30;88.33;85120.13;5128938;28;20197;-57
2023/05/29 06:38:27;;;;;;;9.13;7.80;;;;;;;-144.30;88.28;85114.16;5126566;28;20205;-57
2023/05/29 06:40:54;;;;;;;22.40;12.13;;;;;;;-144.30;88.62;85134.03;5129159;27;20222;-57
2023/05/29 06:43:21;;;;;;;9.02;7.72;;;;;;;-144.30;88.06;85149.94;5127607;28;20202;-57
2023/05/29 06:45:48;;;;;;;21.92;16.45;;;;;;;-144.30;88.45;85018.75;5128662;27;20198;-58
2023/05/29 06:48:14;;;;;;;10.25;7.18;;;;;;;-144.30;87.40;85090.31;5125617;27;20190;-57
2023/05/29 06:50:41;;;;;;;10.15;7.10;;;;;;;-144.30;87.29;85068.44;5133786;27;20200;-57
2023/05/29 06:53:08;;;;;;;7.65;6.50;;;;;;;-144.30;87.12;85030.66;5134301;27;20221;-58
2023/05/29 06:55:36;;;;;;;10.32;8.05;;;;;;;-144.30;86.74;84998.88;5134147;27;20210;-57
2023/05/29 06:58:03;;;;;;;7.45;6.88;;;;;;;-144.30;86.39;84990.91;5129054;27;20217;-57
2023/05/29 07:00:30;;;;;;;10.68;8.68;;;;;;;-144.30;85.76;84971.03;5130929;27;20220;-57
2023/05/29 07:02:57;;;;;;;7.60;5.00;;;;;;;-144.30;84.18;84915.38;5134009;27;20202;-57
2023/05/29 07:05:24;;;;;;;6.25;5.65;;;;;;;-144.30;83.60;84879.59;5134028;27;20194;-57
2023/05/29 07:07:51;;;;;;;6.10;4.93;;;;;;;-144.30;81.74;84808.06;5134144;27;20190;-57
2023/05/29 07:10:18;;;;;;;7.75;5.65;;;;;;;-144.30;79.60;84760.34;5134093;27;20666;-56
2023/05/29 07:12:46;;;;;;;9.57;5.00;;;;;;;-144.30;78.93;84728.56;5133653;27;20587;-59
2023/05/29 07:15:13;;;;;;;11.13;4.70;;;;;;;-144.30;78.12;84744.44;5133582;27;20186;-57
2023/05/29 07:17:40;;;;;;;7.90;5.13;;;;;;;-144.30;78.05;84744.44;5132529;27;20213;-56
2023/05/29 07:20:08;;;;;;;7.35;6.72;;;;;;;-144.30;78.11;84784.19;5133553;27;20208;-57
2023/05/29 07:22:35;;;;;;;7.32;6.63;;;;;;;-144.30;78.20;84788.19;5133269;27;20202;-57
2023/05/29 07:25:03;;;;;;;9.18;6.18;;;;;;;-144.30;78.44;84823.94;5133506;27;20205;-58
2023/05/29 07:27:30;;;;;;;8.35;6.90;;;;;;;-144.30;79.02;84804.06;5132903;27;20193;-58
2023/05/29 07:29:58;;;;;;;5.43;5.03;;;;;;;-144.30;78.37;84816.00;5132127;27;20185;-57
2023/05/29 07:32:25;;;;;;;5.30;4.88;;;;;;;-144.30;77.90;84806.06;5132219;27;20285;-57
2023/05/29 07:34:52;;;;;;;7.82;5.30;;;;;;;-144.30;77.91;84796.13;5132436;27;20194;-57
2023/05/29 07:37:19;;;;;;;16.33;7.38;;;;;;;-144.30;77.98;84784.19;5132154;27;20197;-58
2023/05/29 07:39:46;;;;;;;7.60;5.80;;;;;;;-144.30;77.29;84768.31;5133636;27;20193;-57
2023/05/29 07:42:13;;;;;;;13.23;9.77;;;;;;;-144.30;76.90;84752.41;5133343;27;20293;-58
2023/05/29 07:44:41;;;;;;;7.80;5.93;;;;;;;-144.30;77.07;84768.31;5133316;27;20197;-56
2023/05/29 07:47:10;;;;;;;5.88;5.35;;;;;;;-144.30;76.79;84744.44;5132976;27;20749;-58
2023/05/29 07:49:37;;;;;;;8.68;6.60;;;;;;;-144.30;75.95;84698.75;5133382;27;20223;-58
2023/05/29 07:52:04;;;;;;;17.23;11.40;;;;;;;-144.30;76.94;84732.53;5132052;27;20186;-58
2023/05/29 07:54:32;;;;;;;7.22;6.20;;;;;;;-144.30;76.57;84716.63;5131970;27;20193;-58
2023/05/29 07:56:59;;;;;;;11.45;7.43;;;;;;;-144.30;76.83;84738.47;5131076;27;20229;-58
2023/05/29 07:59:26;;;;;;;11.63;6.90;;;;;;;-144.30;76.89;84724.56;5131138;27;20235;-59
2023/05/29 08:01:53;;;;;;;8.98;6.07;;;;;;;-144.30;76.69;84682.84;5131542;27;20197;-59
2023/05/29 08:04:21;;;;;;;8.77;6.93;;;;;;;-144.30;77.01;84672.91;5131952;27;20201;-58
2023/05/29 08:06:48;;;;;;;6.72;6.10;;;;;;;-144.30;76.55;84700.72;5131734;27;20190;-58
2023/05/29 08:09:15;;;;;;;8.25;6.80;;;;;;;-144.30;76.28;84609.31;5131747;27;20196;-59
2023/05/29 08:11:42;;;;;;;17.42;9.55;;;;;;;-144.30;76.67;84674.88;5131461;27;20198;-58
2023/05/29 08:14:09;;;;;;;6.93;5.95;;;;;;;-144.30;76.90;84660.97;5133031;27;20232;-57
2023/05/29 08:16:36;;;;;;;9.73;6.30;;;;;;;-144.30;76.82;84668.94;5132918;27;20206;-58
2023/05/29 08:19:03;;;;;;;11.32;8.15;;;;;;;-144.30;76.44;84645.06;5132699;27;20222;-58
2023/05/29 08:21:32;;;;;;;11.02;7.97;;;;;;;-144.30;75.72;84595.38;5132450;27;20226;-58
2023/05/29 08:23:59;;;;;;;8.73;7.68;;;;;;;-144.30;76.29;84601.34;5132273;27;20243;-58
2023/05/29 08:26:27;;;;;;;13.32;6.65;;;;;;;-144.30;74.07;84585.44;5132569;27;20194;-57
2023/05/29 08:28:54;;;;;;;8.57;5.57;;;;;;;-144.30;73.70;84519.88;5132597;27;20190;-57
2023/05/29 08:31:23;;;;;;;6.72;6.05;;;;;;;-144.30;73.10;84406.59;5132505;27;20195;-58
2023/05/29 08:33:50;;;;;;;9.63;5.90;;;;;;;-144.30;72.35;84311.19;5132067;27;20198;-57
2023/05/29 08:36:20;;;;;;;7.88;5.90;;;;;;;-144.30;69.37;84358.88;5132714;27;20594;-58
2023/05/29 08:38:49;;;;;;;7.43;5.65;;;;;;;-144.30;68.87;84271.44;5132287;27;20706;-57
2023/05/29 08:41:23;;;;;;;9.00;5.78;;;;;;;-144.30;67.65;84231.69;5132385;27;20666;-58
2023/05/29 08:43:51;;;;;;;6.65;5.47;;;;;;;-144.30;67.66;84227.72;5132280;27;20198;-57
2023/05/29 08:46:19;;;;;;;7.30;5.78;;;;;;;-144.30;63.86;84255.53;5132236;27;20225;-58
2023/05/29 08:48:49;;;;;;;5.25;4.90;;;;;;;-144.30;61.86;84229.72;5132392;27;20653;-58
2023/05/29 08:51:20;;;;;;;7.75;4.97;;;;;;;-144.30;61.59;84267.47;5132557;27;20201;-56
2023/05/29 08:53:49;;;;;;;6.82;4.47;;;;;;;-144.30;60.65;84255.53;5132315;27;20247;-56
2023/05/29 08:56:16;;;;;;;13.40;5.43;;;;;;;-144.30;60.76;84195.94;5132057;27;20194;-56
2023/05/29 08:58:43;;;;;;;4.97;4.45;;;;;;;-144.30;59.53;84182.00;5131866;27;20621;-56
2023/05/29 09:01:11;;;;;;;4.70;4.40;;;;;;;-144.30;59.05;84160.16;5131788;27;20190;-57
2023/05/29 09:03:38;;;;;;;5.13;4.65;;;;;;;-144.30;59.15;84142.28;5131724;27;20198;-58
2023/05/29 09:06:07;;;;;;;5.00;4.50;;;;;;;-144.30;58.54;84191.94;5131799;27;20190;-58
2023/05/29 09:08:34;;;;;;;7.35;4.15;;;;;;;-144.30;58.72;84203.88;5131957;27;20233;-58
2023/05/29 09:11:02;;;;;;;5.93;5.07;;;;;;;-144.30;59.62;84275.41;5131929;27;20198;-57
2023/05/29 09:13:29;;;;;;;8.23;5.60;;;;;;;-144.30;59.53;84213.81;5131607;27;20527;-58
2023/05/29 09:15:59;;;;;;;4.93;4.43;;;;;;;-144.30;59.40;84263.50;5132010;27;20197;-58
2023/05/29 09:18:30;;;;;;;5.10;4.47;;;;;;;-144.30;59.82;84271.44;5131460;27;20222;-58
2023/05/29 09:20:57;;;;;;;6.05;5.00;;;;;;;-144.30;59.52;84259.50;5131494;27;20372;-58
2023/05/29 09:23:24;;;;;;;6.13;5.72;;;;;;;-144.30;59.33;84243.63;5131704;27;20588;-57
2023/05/29 09:25:54;;;;;;;7.32;4.72;;;;;;;-144.30;59.03;84273.44;5131451;27;20220;-57
2023/05/29 09:28:26;;;;;;;5.32;4.85;;;;;;;-144.30;59.93;84317.16;5131610;27;20261;-57
2023/05/29 09:30:53;;;;;;;6.35;4.40;;;;;;;-144.30;59.51;84219.78;5131304;27;20198;-57
2023/05/29 09:33:20;;;;;;;5.18;4.88;;;;;;;-144.30;59.47;84311.19;5131586;27;20220;-57
2023/05/29 09:35:49;;;;;;;4.78;4.40;;;;;;;-144.30;59.46;84388.69;5130693;27;20281;-58
2023/05/29 09:38:17;;;;;;;5.50;5.07;;;;;;;-144.30;60.72;84354.91;5131238;27;20220;-58
2023/05/29 09:40:46;;;;;;;6.25;5.70;;;;;;;-144.30;60.99;84422.47;5130531;27;20671;-58
2023/05/29 09:43:16;;;;;;;5.80;5.40;;;;;;;-144.30;60.23;84408.56;5130989;27;20582;-58
2023/05/29 09:45:46;;;;;;;5.97;4.40;;;;;;;-144.30;59.93;84414.53;5131170;27;20194;-58
2023/05/29 09:48:14;;;;;;;4.70;4.28;;;;;;;-144.30;60.00;84436.38;5129908;27;20198;-56
2023/05/29 09:50:44;;;;;;;5.30;5.00;;;;;;;-144.30;60.41;84442.34;5129931;27;20204;-58
2023/05/29 09:53:21;;;;;;;5.13;4.72;;;;;;;-144.30;60.11;84430.44;5129442;27;20205;-59
2023/05/29 09:55:50;;;;;;;5.78;5.28;;;;;;;-144.30;59.98;84430.44;5127617;27;20197;-58
2023/05/29 09:58:19;;;;;;;5.25;4.65;;;;;;;-144.30;60.77;84400.63;5129527;27;20217;-59
2023/05/29 10:00:48;;;;;;;6.82;6.05;;;;;;;-144.30;60.77;84370.81;5129926;27;20186;-58
2023/05/29 10:03:16;;;;;;;5.57;5.13;;;;;;;-144.30;59.44;84370.81;5129725;28;20198;-58
2023/05/29 10:05:44;;;;;;;7.95;6.03;;;;;;;-144.30;60.14;84370.81;5129652;28;20237;-55
2023/05/29 10:08:14;;;;;;;5.75;5.03;;;;;;;-144.30;59.61;84392.66;5127075;28;20186;-55
2023/05/29 10:10:44;;;;;;;7.00;4.40;;;;;;;-144.30;58.33;84311.19;5129087;28;20650;-56
2023/05/29 10:13:13;;;;;;;5.68;4.57;;;;;;;-144.30;58.71;84325.09;5127899;27;20698;-56
2023/05/29 10:15:42;;;;;;;5.10;4.70;;;;;;;-144.30;58.67;84315.16;5124897;27;20344;-56
2023/05/29 10:18:19;;;;;;;5.63;4.53;;;;;;;-144.30;58.18;84287.34;5128757;27;20217;-56
2023/05/29 10:20:51;;;;;;;11.55;5.22;;;;;;;-144.30;58.14;84279.38;5128039;27;20220;-56
2023/05/29 10:23:22;;;;;;;4.68;4.38;;;;;;;-144.30;57.68;84275.41;5131488;27;20225;-55
2023/05/29 10:25:52;;;;;;;7.32;4.90;;;;;;;-144.30;56.68;84253.56;5134524;27;20305;-55
2023/05/29 10:28:19;;;;;;;5.70;5.07;;;;;;;-144.30;55.60;84223.75;5134605;27;20237;-56
2023/05/29 10:30:52;;;;;;;5.70;4.70;;;;;;;-144.30;54.90;84229.72;5134277;27;20293;-59
2023/05/29 10:33:38;;;;;;;5.10;4.40;;;;;;;-144.30;54.18;84263.50;5134221;27;20584;-59
2023/05/29 10:36:11;;;;;;;4.07;3.88;;;;;;;-144.30;54.64;84253.56;5128148;27;20220;-59
2023/05/29 10:38:39;;;;;;;4.50;4.13;;;;;;;-144.30;55.57;84237.66;5131210;27;20233;-59
2023/05/29 10:41:30;;;;;;;5.40;4.90;;;;;;;-144.30;55.95;84239.66;5135358;27;20225;-59
2023/05/29 10:43:57;;;;;;;7.60;5.35;;;;;;;-144.30;56.31;84176.06;5119421;27;20670;-58
2023/05/29 10:47:03;;;;;;;5.80;5.40;;;;;;;-144.30;56.08;84191.94;5132069;27;20542;-58
2023/05/29 10:49:32;;;;;;;5.18;4.68;;;;;;;-144.30;56.25;84193.94;5132769;27;20194;-58
2023/05/29 10:52:00;;;;;;;5.40;5.00;;;;;;;-144.30;56.21;84182.00;5130613;27;20655;-59
2023/05/29 10:54:27;;;;;;;5.53;5.03;;;;;;;-144.30;55.83;84213.81;5133421;27;20217;-59
2023/05/29 10:56:57;;;;;;;5.28;4.78;;;;;;;-144.30;55.07;84164.13;5133029;27;20193;-59
2023/05/29 10:59:27;;;;;;;5.10;4.78;;;;;;;-144.30;55.10;84187.97;5133003;27;20225;-58
2023/05/29 11:01:54;;;;;;;5.25;4.85;;;;;;;-144.30;54.96;84092.59;5132989;27;20635;-58
2023/05/29 11:04:29;;;;;;;4.95;3.80;;;;;;;-144.30;54.45;84124.38;5133103;27;20212;-58
2023/05/29 11:06:57;;;;;;;4.60;4.22;;;;;;;-144.30;54.23;84158.16;5132958;27;20188;-59
2023/05/29 11:09:29;;;;;;;4.15;3.83;;;;;;;-144.30;53.41;84140.28;5132894;27;20198;-59
2023/05/29 11:12:25;;;;;;;5.75;5.32;;;;;;;-144.30;53.52;84056.81;5132821;27;20347;-58
2023/05/29 11:14:56;;;;;;;5.30;4.07;;;;;;;-144.30;53.55;83929.66;5131989;27;20206;-57
2023/05/29 11:17:34;;;;;;;4.60;4.10;;;;;;;-144.30;51.93;84031.00;5133104;27;20201;-58